sensor_id;sensor_type;location;lat;lon;timestamp;P1;durP1;ratioP1;P2;durP2;ratioP2
8944;SDS011;4507;40.232;29.132;2022-12-29T00:00:21;21.77;;;19.50;;
8944;SDS011;4507;40.232;29.132;2022-12-29T00:02:51;21.63;;;19.53;;
8944;SDS011;4507;40.232;29.132;2022-12-29T00:05:20;22.43;;;20.13;;
8944;SDS011;4507;40.232;29.132;2022-12-29T00:07:49;22.00;;;19.70;;
8944;SDS011;4507;40.232;29.132;2022-12-29T00:10:18;22.30;;;20.00;;
8944;SDS011;4507;40.232;29.132;2022-12-29T00:12:48;22.50;;;20.10;;
8944;SDS011;4507;40.232;29.132;2022-12-29T00:15:35;23.50;;;20.63;;
8944;SDS011;4507;40.232;29.132;2022-12-29T00:18:05;22.87;;;20.53;;
8944;SDS011;4507;40.232;29.132;2022-12-29T00:20:34;24.10;;;21.60;;
8944;SDS011;4507;40.232;29.132;2022-12-29T00:23:22;23.73;;;21.27;;
8944;SDS011;4507;40.232;29.132;2022-12-29T00:26:10;25.57;;;22.90;;
8944;SDS011;4507;40.232;29.132;2022-12-29T00:29:01;26.60;;;23.00;;
8944;SDS011;4507;40.232;29.132;2022-12-29T00:31:50;26.83;;;23.93;;
8944;SDS011;4507;40.232;29.132;2022-12-29T00:34:36;27.47;;;24.63;;
8944;SDS011;4507;40.232;29.132;2022-12-29T00:37:23;28.67;;;25.37;;
8944;SDS011;4507;40.232;29.132;2022-12-29T00:40:30;29.53;;;26.47;;
8944;SDS011;4507;40.232;29.132;2022-12-29T00:43:17;28.93;;;25.87;;
8944;SDS011;4507;40.232;29.132;2022-12-29T00:46:04;29.40;;;26.27;;
8944;SDS011;4507;40.232;29.132;2022-12-29T00:48:33;29.47;;;26.47;;
8944;SDS011;4507;40.232;29.132;2022-12-29T00:51:20;29.67;;;26.47;;
8944;SDS011;4507;40.232;29.132;2022-12-29T00:53:49;29.37;;;26.27;;
8944;SDS011;4507;40.232;29.132;2022-12-29T00:56:18;27.90;;;25.03;;
8944;SDS011;4507;40.232;29.132;2022-12-29T00:58:47;28.60;;;25.60;;
8944;SDS011;4507;40.232;29.132;2022-12-29T01:01:18;27.43;;;24.20;;
8944;SDS011;4507;40.232;29.132;2022-12-29T01:03:47;26.70;;;23.33;;
8944;SDS011;4507;40.232;29.132;2022-12-29T01:06:18;27.40;;;24.60;;
8944;SDS011;4507;40.232;29.132;2022-12-29T01:08:47;27.30;;;24.40;;
8944;SDS011;4507;40.232;29.132;2022-12-29T01:11:37;27.80;;;23.77;;
8944;SDS011;4507;40.232;29.132;2022-12-29T01:14:06;27.23;;;23.57;;
8944;SDS011;4507;40.232;29.132;2022-12-29T01:16:37;26.07;;;23.27;;
8944;SDS011;4507;40.232;29.132;2022-12-29T01:19:06;24.83;;;22.27;;
8944;SDS011;4507;40.232;29.132;2022-12-29T01:21:35;25.07;;;22.47;;
8944;SDS011;4507;40.232;29.132;2022-12-29T01:24:05;25.57;;;22.97;;
8944;SDS011;4507;40.232;29.132;2022-12-29T01:26:34;25.67;;;22.97;;
8944;SDS011;4507;40.232;29.132;2022-12-29T01:29:03;26.37;;;23.73;;
8944;SDS011;4507;40.232;29.132;2022-12-29T01:31:33;26.60;;;23.70;;
8944;SDS011;4507;40.232;29.132;2022-12-29T01:34:03;29.30;;;25.03;;
8944;SDS011;4507;40.232;29.132;2022-12-29T01:36:33;28.00;;;25.03;;
8944;SDS011;4507;40.232;29.132;2022-12-29T01:39:21;27.33;;;24.30;;
8944;SDS011;4507;40.232;29.132;2022-12-29T01:41:50;29.77;;;25.77;;
8944;SDS011;4507;40.232;29.132;2022-12-29T01:44:41;28.13;;;25.23;;
8944;SDS011;4507;40.232;29.132;2022-12-29T01:47:21;28.50;;;25.47;;
8944;SDS011;4507;40.232;29.132;2022-12-29T01:49:57;28.47;;;25.47;;
8944;SDS011;4507;40.232;29.132;2022-12-29T01:52:30;28.53;;;25.63;;
8944;SDS011;4507;40.232;29.132;2022-12-29T01:55:02;31.50;;;26.30;;
8944;SDS011;4507;40.232;29.132;2022-12-29T01:57:34;29.20;;;26.00;;
8944;SDS011;4507;40.232;29.132;2022-12-29T02:00:23;32.03;;;28.33;;
8944;SDS011;4507;40.232;29.132;2022-12-29T02:02:52;38.80;;;30.03;;
8944;SDS011;4507;40.232;29.132;2022-12-29T02:05:25;40.10;;;32.47;;
8944;SDS011;4507;40.232;29.132;2022-12-29T02:07:57;33.60;;;29.30;;
8944;SDS011;4507;40.232;29.132;2022-12-29T02:10:30;34.47;;;28.67;;
8944;SDS011;4507;40.232;29.132;2022-12-29T02:13:01;32.23;;;28.73;;
8944;SDS011;4507;40.232;29.132;2022-12-29T02:15:35;30.47;;;26.50;;
8944;SDS011;4507;40.232;29.132;2022-12-29T02:18:16;32.87;;;26.93;;
8944;SDS011;4507;40.232;29.132;2022-12-29T02:21:10;31.00;;;26.20;;
8944;SDS011;4507;40.232;29.132;2022-12-29T02:24:05;29.80;;;26.57;;
8944;SDS011;4507;40.232;29.132;2022-12-29T02:30:07;30.57;;;27.17;;
8944;SDS011;4507;40.232;29.132;2022-12-29T02:32:48;31.90;;;27.87;;
8944;SDS011;4507;40.232;29.132;2022-12-29T02:35:25;29.77;;;25.97;;
8944;SDS011;4507;40.232;29.132;2022-12-29T02:38:02;31.60;;;28.20;;
8944;SDS011;4507;40.232;29.132;2022-12-29T02:40:51;32.47;;;27.97;;
8944;SDS011;4507;40.232;29.132;2022-12-29T02:43:27;31.47;;;28.07;;
8944;SDS011;4507;40.232;29.132;2022-12-29T02:46:03;31.53;;;27.67;;
8944;SDS011;4507;40.232;29.132;2022-12-29T02:48:42;30.87;;;27.60;;
8944;SDS011;4507;40.232;29.132;2022-12-29T02:51:15;32.60;;;28.50;;
8944;SDS011;4507;40.232;29.132;2022-12-29T02:53:49;32.43;;;27.87;;
8944;SDS011;4507;40.232;29.132;2022-12-29T02:56:38;32.17;;;28.77;;
8944;SDS011;4507;40.232;29.132;2022-12-29T02:59:07;37.83;;;31.23;;
8944;SDS011;4507;40.232;29.132;2022-12-29T03:01:40;33.37;;;29.73;;
8944;SDS011;4507;40.232;29.132;2022-12-29T03:04:37;32.97;;;28.87;;
8944;SDS011;4507;40.232;29.132;2022-12-29T03:07:17;33.70;;;30.10;;
8944;SDS011;4507;40.232;29.132;2022-12-29T03:09:52;39.83;;;32.13;;
8944;SDS011;4507;40.232;29.132;2022-12-29T03:12:29;39.97;;;31.07;;
8944;SDS011;4507;40.232;29.132;2022-12-29T03:15:20;34.27;;;29.83;;
8944;SDS011;4507;40.232;29.132;2022-12-29T03:18:10;40.20;;;32.47;;
8944;SDS011;4507;40.232;29.132;2022-12-29T03:20:46;36.20;;;31.17;;
8944;SDS011;4507;40.232;29.132;2022-12-29T03:23:19;33.27;;;29.77;;
8944;SDS011;4507;40.232;29.132;2022-12-29T03:25:53;34.37;;;30.30;;
8944;SDS011;4507;40.232;29.132;2022-12-29T03:28:27;35.30;;;31.27;;
8944;SDS011;4507;40.232;29.132;2022-12-29T03:31:01;35.40;;;30.67;;
8944;SDS011;4507;40.232;29.132;2022-12-29T03:33:33;36.00;;;32.10;;
8944;SDS011;4507;40.232;29.132;2022-12-29T03:36:09;48.00;;;39.97;;
8944;SDS011;4507;40.232;29.132;2022-12-29T03:38:45;65.53;;;50.07;;
8944;SDS011;4507;40.232;29.132;2022-12-29T03:41:19;67.30;;;50.83;;
8944;SDS011;4507;40.232;29.132;2022-12-29T03:43:53;76.20;;;57.17;;
8944;SDS011;4507;40.232;29.132;2022-12-29T03:46:23;78.63;;;57.67;;
8944;SDS011;4507;40.232;29.132;2022-12-29T03:48:52;60.67;;;46.47;;
8944;SDS011;4507;40.232;29.132;2022-12-29T03:51:24;48.67;;;40.50;;
8944;SDS011;4507;40.232;29.132;2022-12-29T03:53:53;44.17;;;39.17;;
8944;SDS011;4507;40.232;29.132;2022-12-29T03:56:22;42.23;;;36.57;;
8944;SDS011;4507;40.232;29.132;2022-12-29T03:58:52;40.80;;;35.97;;
8944;SDS011;4507;40.232;29.132;2022-12-29T04:01:31;45.60;;;38.93;;
8944;SDS011;4507;40.232;29.132;2022-12-29T04:04:00;45.20;;;37.00;;
8944;SDS011;4507;40.232;29.132;2022-12-29T04:06:31;43.53;;;35.93;;
8944;SDS011;4507;40.232;29.132;2022-12-29T04:09:04;44.37;;;36.50;;
8944;SDS011;4507;40.232;29.132;2022-12-29T04:11:52;40.37;;;35.20;;
8944;SDS011;4507;40.232;29.132;2022-12-29T04:14:21;40.83;;;34.67;;
8944;SDS011;4507;40.232;29.132;2022-12-29T04:16:52;37.67;;;30.80;;
8944;SDS011;4507;40.232;29.132;2022-12-29T04:19:22;41.57;;;37.07;;
8944;SDS011;4507;40.232;29.132;2022-12-29T04:21:52;55.90;;;49.63;;
8944;SDS011;4507;40.232;29.132;2022-12-29T04:24:22;47.93;;;42.60;;
8944;SDS011;4507;40.232;29.132;2022-12-29T04:26:52;46.87;;;41.77;;
8944;SDS011;4507;40.232;29.132;2022-12-29T04:29:41;70.03;;;48.63;;
8944;SDS011;4507;40.232;29.132;2022-12-29T04:32:29;83.30;;;51.30;;
8944;SDS011;4507;40.232;29.132;2022-12-29T04:34:58;130.83;;;82.90;;
8944;SDS011;4507;40.232;29.132;2022-12-29T04:37:29;57.50;;;46.17;;
8944;SDS011;4507;40.232;29.132;2022-12-29T04:39:58;50.97;;;42.17;;
8944;SDS011;4507;40.232;29.132;2022-12-29T04:42:28;118.07;;;95.90;;
8944;SDS011;4507;40.232;29.132;2022-12-29T04:44:59;105.37;;;87.70;;
8944;SDS011;4507;40.232;29.132;2022-12-29T04:47:44;72.20;;;58.97;;
8944;SDS011;4507;40.232;29.132;2022-12-29T04:50:31;63.23;;;48.03;;
8944;SDS011;4507;40.232;29.132;2022-12-29T04:53:14;92.07;;;61.73;;
8944;SDS011;4507;40.232;29.132;2022-12-29T04:55:47;110.67;;;71.17;;
8944;SDS011;4507;40.232;29.132;2022-12-29T04:58:18;124.10;;;79.33;;
8944;SDS011;4507;40.232;29.132;2022-12-29T05:00:50;117.33;;;74.20;;
8944;SDS011;4507;40.232;29.132;2022-12-29T05:03:22;124.03;;;83.60;;
8944;SDS011;4507;40.232;29.132;2022-12-29T05:05:53;132.27;;;86.97;;
8944;SDS011;4507;40.232;29.132;2022-12-29T05:08:24;130.80;;;84.00;;
8944;SDS011;4507;40.232;29.132;2022-12-29T05:10:57;123.27;;;83.00;;
8944;SDS011;4507;40.232;29.132;2022-12-29T05:13:26;114.80;;;75.83;;
8944;SDS011;4507;40.232;29.132;2022-12-29T05:15:56;105.77;;;73.70;;
8944;SDS011;4507;40.232;29.132;2022-12-29T05:18:26;101.53;;;71.27;;
8944;SDS011;4507;40.232;29.132;2022-12-29T05:20:57;114.57;;;77.27;;
8944;SDS011;4507;40.232;29.132;2022-12-29T05:23:28;102.57;;;72.70;;
8944;SDS011;4507;40.232;29.132;2022-12-29T05:26:02;94.23;;;63.90;;
8944;SDS011;4507;40.232;29.132;2022-12-29T05:28:43;79.87;;;56.20;;
8944;SDS011;4507;40.232;29.132;2022-12-29T05:31:17;83.00;;;56.33;;
8944;SDS011;4507;40.232;29.132;2022-12-29T05:34:04;112.60;;;79.07;;
8944;SDS011;4507;40.232;29.132;2022-12-29T05:36:33;108.57;;;76.27;;
8944;SDS011;4507;40.232;29.132;2022-12-29T05:39:07;97.43;;;75.67;;
8944;SDS011;4507;40.232;29.132;2022-12-29T05:41:37;97.27;;;78.73;;
8944;SDS011;4507;40.232;29.132;2022-12-29T05:44:09;111.27;;;92.70;;
8944;SDS011;4507;40.232;29.132;2022-12-29T05:46:54;129.10;;;111.67;;
8944;SDS011;4507;40.232;29.132;2022-12-29T05:49:43;159.93;;;142.27;;
8944;SDS011;4507;40.232;29.132;2022-12-29T05:52:37;126.37;;;109.20;;
8944;SDS011;4507;40.232;29.132;2022-12-29T05:55:08;112.17;;;98.93;;
8944;SDS011;4507;40.232;29.132;2022-12-29T05:57:39;102.40;;;85.20;;
8944;SDS011;4507;40.232;29.132;2022-12-29T06:00:14;104.53;;;85.63;;
8944;SDS011;4507;40.232;29.132;2022-12-29T06:02:45;124.00;;;99.13;;
8944;SDS011;4507;40.232;29.132;2022-12-29T06:05:16;133.23;;;105.87;;
8944;SDS011;4507;40.232;29.132;2022-12-29T06:07:46;130.60;;;98.57;;
8944;SDS011;4507;40.232;29.132;2022-12-29T06:10:17;120.97;;;90.67;;
8944;SDS011;4507;40.232;29.132;2022-12-29T06:12:58;118.13;;;93.23;;
8944;SDS011;4507;40.232;29.132;2022-12-29T06:15:30;126.43;;;98.30;;
8944;SDS011;4507;40.232;29.132;2022-12-29T06:17:59;123.53;;;94.47;;
8944;SDS011;4507;40.232;29.132;2022-12-29T06:20:28;106.17;;;83.97;;
8944;SDS011;4507;40.232;29.132;2022-12-29T06:22:58;133.80;;;96.77;;
8944;SDS011;4507;40.232;29.132;2022-12-29T06:25:29;115.97;;;92.57;;
8944;SDS011;4507;40.232;29.132;2022-12-29T06:28:02;90.83;;;70.67;;
8944;SDS011;4507;40.232;29.132;2022-12-29T06:30:32;79.87;;;62.07;;
8944;SDS011;4507;40.232;29.132;2022-12-29T06:33:01;71.33;;;57.03;;
8944;SDS011;4507;40.232;29.132;2022-12-29T06:35:31;64.83;;;50.07;;
8944;SDS011;4507;40.232;29.132;2022-12-29T06:38:00;62.60;;;47.77;;
8944;SDS011;4507;40.232;29.132;2022-12-29T06:40:31;52.40;;;43.50;;
8944;SDS011;4507;40.232;29.132;2022-12-29T06:43:26;57.20;;;42.70;;
8944;SDS011;4507;40.232;29.132;2022-12-29T06:46:03;57.40;;;42.63;;
8944;SDS011;4507;40.232;29.132;2022-12-29T06:48:33;50.37;;;42.20;;
8944;SDS011;4507;40.232;29.132;2022-12-29T06:51:02;50.30;;;41.17;;
8944;SDS011;4507;40.232;29.132;2022-12-29T06:53:31;53.60;;;43.33;;
8944;SDS011;4507;40.232;29.132;2022-12-29T06:56:02;45.20;;;39.73;;
8944;SDS011;4507;40.232;29.132;2022-12-29T06:58:32;47.23;;;39.53;;
8944;SDS011;4507;40.232;29.132;2022-12-29T07:01:01;47.60;;;38.23;;
8944;SDS011;4507;40.232;29.132;2022-12-29T07:03:30;43.03;;;38.33;;
8944;SDS011;4507;40.232;29.132;2022-12-29T07:05:59;43.33;;;36.90;;
8944;SDS011;4507;40.232;29.132;2022-12-29T07:08:28;43.10;;;36.13;;
8944;SDS011;4507;40.232;29.132;2022-12-29T07:10:57;42.03;;;35.47;;
8944;SDS011;4507;40.232;29.132;2022-12-29T07:13:28;42.37;;;34.67;;
8944;SDS011;4507;40.232;29.132;2022-12-29T07:15:59;48.17;;;36.17;;
8944;SDS011;4507;40.232;29.132;2022-12-29T07:18:33;46.20;;;39.37;;
8944;SDS011;4507;40.232;29.132;2022-12-29T07:21:02;45.53;;;35.80;;
8944;SDS011;4507;40.232;29.132;2022-12-29T07:23:32;42.20;;;34.97;;
8944;SDS011;4507;40.232;29.132;2022-12-29T07:26:02;44.70;;;34.13;;
8944;SDS011;4507;40.232;29.132;2022-12-29T07:28:35;38.57;;;32.67;;
8944;SDS011;4507;40.232;29.132;2022-12-29T07:31:23;34.00;;;29.53;;
8944;SDS011;4507;40.232;29.132;2022-12-29T07:33:52;36.83;;;30.00;;
8944;SDS011;4507;40.232;29.132;2022-12-29T07:36:22;37.00;;;28.30;;
8944;SDS011;4507;40.232;29.132;2022-12-29T07:38:59;33.80;;;29.07;;
8944;SDS011;4507;40.232;29.132;2022-12-29T07:41:28;35.07;;;29.13;;
8944;SDS011;4507;40.232;29.132;2022-12-29T07:44:02;38.70;;;29.53;;
8944;SDS011;4507;40.232;29.132;2022-12-29T07:46:51;34.23;;;29.37;;
8944;SDS011;4507;40.232;29.132;2022-12-29T07:49:24;35.63;;;28.43;;
8944;SDS011;4507;40.232;29.132;2022-12-29T07:51:53;38.17;;;28.83;;
8944;SDS011;4507;40.232;29.132;2022-12-29T07:54:22;35.83;;;28.80;;
8944;SDS011;4507;40.232;29.132;2022-12-29T07:56:52;37.53;;;28.20;;
8944;SDS011;4507;40.232;29.132;2022-12-29T07:59:22;37.77;;;28.90;;
8944;SDS011;4507;40.232;29.132;2022-12-29T08:01:51;35.60;;;26.83;;
8944;SDS011;4507;40.232;29.132;2022-12-29T08:04:21;36.03;;;28.03;;
8944;SDS011;4507;40.232;29.132;2022-12-29T08:06:50;38.77;;;28.70;;
8944;SDS011;4507;40.232;29.132;2022-12-29T08:09:19;38.97;;;29.03;;
8944;SDS011;4507;40.232;29.132;2022-12-29T08:12:09;35.50;;;28.50;;
8944;SDS011;4507;40.232;29.132;2022-12-29T08:14:40;35.40;;;27.83;;
8944;SDS011;4507;40.232;29.132;2022-12-29T08:17:09;55.67;;;30.47;;
8944;SDS011;4507;40.232;29.132;2022-12-29T08:19:38;36.40;;;28.73;;
8944;SDS011;4507;40.232;29.132;2022-12-29T08:22:09;33.30;;;28.47;;
8944;SDS011;4507;40.232;29.132;2022-12-29T08:24:38;43.63;;;30.60;;
8944;SDS011;4507;40.232;29.132;2022-12-29T08:27:07;47.87;;;28.67;;
8944;SDS011;4507;40.232;29.132;2022-12-29T08:29:47;66.87;;;28.97;;
8944;SDS011;4507;40.232;29.132;2022-12-29T08:32:16;44.90;;;27.37;;
8944;SDS011;4507;40.232;29.132;2022-12-29T08:34:45;46.47;;;26.47;;
8944;SDS011;4507;40.232;29.132;2022-12-29T08:37:14;47.97;;;26.10;;
8944;SDS011;4507;40.232;29.132;2022-12-29T08:39:43;33.37;;;26.33;;
8944;SDS011;4507;40.232;29.132;2022-12-29T08:42:12;50.27;;;27.37;;
8944;SDS011;4507;40.232;29.132;2022-12-29T08:44:41;55.73;;;27.27;;
8944;SDS011;4507;40.232;29.132;2022-12-29T08:47:12;38.77;;;25.47;;
8944;SDS011;4507;40.232;29.132;2022-12-29T08:49:41;41.90;;;26.13;;
8944;SDS011;4507;40.232;29.132;2022-12-29T08:52:10;32.60;;;23.70;;
8944;SDS011;4507;40.232;29.132;2022-12-29T08:54:40;54.70;;;25.83;;
8944;SDS011;4507;40.232;29.132;2022-12-29T08:57:09;49.20;;;24.63;;
8944;SDS011;4507;40.232;29.132;2022-12-29T08:59:50;29.77;;;22.70;;
8944;SDS011;4507;40.232;29.132;2022-12-29T09:02:20;55.37;;;24.20;;
8944;SDS011;4507;40.232;29.132;2022-12-29T09:04:50;42.37;;;23.73;;
8944;SDS011;4507;40.232;29.132;2022-12-29T09:07:20;35.93;;;23.30;;
8944;SDS011;4507;40.232;29.132;2022-12-29T09:09:49;36.10;;;24.03;;
8944;SDS011;4507;40.232;29.132;2022-12-29T09:12:18;72.03;;;27.47;;
8944;SDS011;4507;40.232;29.132;2022-12-29T09:14:47;38.67;;;23.63;;
8944;SDS011;4507;40.232;29.132;2022-12-29T09:17:17;36.53;;;24.40;;
8944;SDS011;4507;40.232;29.132;2022-12-29T09:20:05;58.50;;;24.57;;
8944;SDS011;4507;40.232;29.132;2022-12-29T09:22:35;38.60;;;24.77;;
8944;SDS011;4507;40.232;29.132;2022-12-29T09:25:05;95.40;;;28.57;;
8944;SDS011;4507;40.232;29.132;2022-12-29T09:27:36;50.13;;;24.43;;
8944;SDS011;4507;40.232;29.132;2022-12-29T09:30:06;42.10;;;25.33;;
8944;SDS011;4507;40.232;29.132;2022-12-29T09:32:37;29.60;;;23.53;;
8944;SDS011;4507;40.232;29.132;2022-12-29T09:35:13;64.80;;;25.87;;
8944;SDS011;4507;40.232;29.132;2022-12-29T09:37:45;44.37;;;28.73;;
8944;SDS011;4507;40.232;29.132;2022-12-29T09:40:18;54.53;;;30.53;;
8944;SDS011;4507;40.232;29.132;2022-12-29T09:42:57;46.40;;;26.20;;
8944;SDS011;4507;40.232;29.132;2022-12-29T09:45:39;39.13;;;22.87;;
8944;SDS011;4507;40.232;29.132;2022-12-29T09:48:13;67.83;;;24.53;;
8944;SDS011;4507;40.232;29.132;2022-12-29T09:50:50;32.10;;;23.70;;
8944;SDS011;4507;40.232;29.132;2022-12-29T09:53:25;69.23;;;26.73;;
8944;SDS011;4507;40.232;29.132;2022-12-29T09:56:17;29.03;;;22.10;;
8944;SDS011;4507;40.232;29.132;2022-12-29T09:58:50;39.60;;;24.93;;
8944;SDS011;4507;40.232;29.132;2022-12-29T10:01:26;45.03;;;27.80;;
8944;SDS011;4507;40.232;29.132;2022-12-29T10:03:59;45.03;;;28.27;;
8944;SDS011;4507;40.232;29.132;2022-12-29T10:06:35;41.00;;;30.33;;
8944;SDS011;4507;40.232;29.132;2022-12-29T10:09:30;26.47;;;22.83;;
8944;SDS011;4507;40.232;29.132;2022-12-29T10:12:04;32.17;;;24.33;;
8944;SDS011;4507;40.232;29.132;2022-12-29T10:14:47;45.63;;;27.60;;
8944;SDS011;4507;40.232;29.132;2022-12-29T10:17:28;34.17;;;26.13;;
8944;SDS011;4507;40.232;29.132;2022-12-29T10:20:20;61.53;;;32.07;;
8944;SDS011;4507;40.232;29.132;2022-12-29T10:23:04;69.10;;;27.23;;
8944;SDS011;4507;40.232;29.132;2022-12-29T10:25:48;36.13;;;23.80;;
8944;SDS011;4507;40.232;29.132;2022-12-29T10:28:22;38.17;;;30.87;;
8944;SDS011;4507;40.232;29.132;2022-12-29T10:30:53;48.97;;;32.07;;
8944;SDS011;4507;40.232;29.132;2022-12-29T10:33:34;35.40;;;29.47;;
8944;SDS011;4507;40.232;29.132;2022-12-29T10:36:12;32.73;;;29.23;;
8944;SDS011;4507;40.232;29.132;2022-12-29T10:38:48;34.23;;;29.47;;
8944;SDS011;4507;40.232;29.132;2022-12-29T10:41:26;36.67;;;32.23;;
8944;SDS011;4507;40.232;29.132;2022-12-29T10:44:01;37.13;;;31.63;;
8944;SDS011;4507;40.232;29.132;2022-12-29T10:46:30;77.13;;;57.47;;
8944;SDS011;4507;40.232;29.132;2022-12-29T10:49:22;89.50;;;67.43;;
8944;SDS011;4507;40.232;29.132;2022-12-29T10:51:55;96.03;;;66.47;;
8944;SDS011;4507;40.232;29.132;2022-12-29T10:54:32;90.87;;;71.17;;
8944;SDS011;4507;40.232;29.132;2022-12-29T10:57:08;83.47;;;63.93;;
8944;SDS011;4507;40.232;29.132;2022-12-29T10:59:41;89.43;;;63.63;;
8944;SDS011;4507;40.232;29.132;2022-12-29T11:02:19;95.90;;;68.73;;
8944;SDS011;4507;40.232;29.132;2022-12-29T11:05:13;94.33;;;67.40;;
8944;SDS011;4507;40.232;29.132;2022-12-29T11:07:51;95.33;;;64.43;;
8944;SDS011;4507;40.232;29.132;2022-12-29T11:10:30;92.33;;;68.77;;
8944;SDS011;4507;40.232;29.132;2022-12-29T11:13:10;95.77;;;72.23;;
8944;SDS011;4507;40.232;29.132;2022-12-29T11:15:42;101.13;;;76.77;;
8944;SDS011;4507;40.232;29.132;2022-12-29T11:18:19;103.93;;;76.70;;
8944;SDS011;4507;40.232;29.132;2022-12-29T11:20:52;103.23;;;75.43;;
8944;SDS011;4507;40.232;29.132;2022-12-29T11:23:23;102.97;;;79.47;;
8944;SDS011;4507;40.232;29.132;2022-12-29T11:26:12;105.60;;;78.47;;
8944;SDS011;4507;40.232;29.132;2022-12-29T11:28:44;90.43;;;70.37;;
8944;SDS011;4507;40.232;29.132;2022-12-29T11:31:17;92.30;;;71.90;;
8944;SDS011;4507;40.232;29.132;2022-12-29T11:33:50;93.33;;;74.63;;
8944;SDS011;4507;40.232;29.132;2022-12-29T11:36:19;103.07;;;77.37;;
8944;SDS011;4507;40.232;29.132;2022-12-29T11:38:51;101.33;;;75.47;;
8944;SDS011;4507;40.232;29.132;2022-12-29T11:41:25;105.17;;;76.57;;
8944;SDS011;4507;40.232;29.132;2022-12-29T11:43:57;108.03;;;79.07;;
8944;SDS011;4507;40.232;29.132;2022-12-29T11:46:28;97.30;;;76.40;;
8944;SDS011;4507;40.232;29.132;2022-12-29T11:48:59;100.37;;;75.43;;
8944;SDS011;4507;40.232;29.132;2022-12-29T11:51:33;100.57;;;74.27;;
8944;SDS011;4507;40.232;29.132;2022-12-29T11:54:09;105.23;;;77.30;;
8944;SDS011;4507;40.232;29.132;2022-12-29T11:56:48;104.20;;;77.20;;
8944;SDS011;4507;40.232;29.132;2022-12-29T11:59:35;104.60;;;75.87;;
8944;SDS011;4507;40.232;29.132;2022-12-29T12:05:10;103.40;;;78.53;;
8944;SDS011;4507;40.232;29.132;2022-12-29T12:07:50;110.20;;;82.00;;
8944;SDS011;4507;40.232;29.132;2022-12-29T12:10:44;113.57;;;82.50;;
8944;SDS011;4507;40.232;29.132;2022-12-29T12:13:19;114.67;;;78.07;;
8944;SDS011;4507;40.232;29.132;2022-12-29T12:15:55;104.33;;;77.13;;
8944;SDS011;4507;40.232;29.132;2022-12-29T12:18:49;106.80;;;76.73;;
8944;SDS011;4507;40.232;29.132;2022-12-29T12:21:23;116.77;;;80.93;;
8944;SDS011;4507;40.232;29.132;2022-12-29T12:23:58;106.13;;;73.67;;
8944;SDS011;4507;40.232;29.132;2022-12-29T12:26:38;103.27;;;77.10;;
8944;SDS011;4507;40.232;29.132;2022-12-29T12:29:15;106.93;;;76.70;;
8944;SDS011;4507;40.232;29.132;2022-12-29T12:31:49;111.10;;;78.93;;
8944;SDS011;4507;40.232;29.132;2022-12-29T12:34:24;108.37;;;76.77;;
8944;SDS011;4507;40.232;29.132;2022-12-29T12:37:03;108.60;;;73.50;;
8944;SDS011;4507;40.232;29.132;2022-12-29T12:43:18;102.77;;;77.10;;
8944;SDS011;4507;40.232;29.132;2022-12-29T12:46:05;103.30;;;73.20;;
8944;SDS011;4507;40.232;29.132;2022-12-29T12:49:03;104.03;;;74.37;;
8944;SDS011;4507;40.232;29.132;2022-12-29T12:51:52;99.17;;;73.03;;
8944;SDS011;4507;40.232;29.132;2022-12-29T12:54:35;109.77;;;78.20;;
8944;SDS011;4507;40.232;29.132;2022-12-29T12:57:17;109.63;;;78.73;;
8944;SDS011;4507;40.232;29.132;2022-12-29T12:59:56;106.67;;;77.47;;
8944;SDS011;4507;40.232;29.132;2022-12-29T13:02:38;108.83;;;78.17;;
8944;SDS011;4507;40.232;29.132;2022-12-29T13:05:20;101.90;;;76.10;;
8944;SDS011;4507;40.232;29.132;2022-12-29T13:08:03;109.47;;;79.70;;
8944;SDS011;4507;40.232;29.132;2022-12-29T13:11:20;109.43;;;79.13;;
8944;SDS011;4507;40.232;29.132;2022-12-29T13:16:51;99.83;;;74.67;;
8944;SDS011;4507;40.232;29.132;2022-12-29T13:19:30;107.30;;;76.13;;
8944;SDS011;4507;40.232;29.132;2022-12-29T13:22:05;97.13;;;74.63;;
8944;SDS011;4507;40.232;29.132;2022-12-29T13:24:44;98.20;;;75.80;;
8944;SDS011;4507;40.232;29.132;2022-12-29T13:27:22;108.93;;;73.77;;
8944;SDS011;4507;40.232;29.132;2022-12-29T13:30:03;107.87;;;72.37;;
8944;SDS011;4507;40.232;29.132;2022-12-29T13:32:41;98.57;;;73.10;;
8944;SDS011;4507;40.232;29.132;2022-12-29T13:35:26;99.83;;;77.70;;
8944;SDS011;4507;40.232;29.132;2022-12-29T13:38:03;105.70;;;75.50;;
8944;SDS011;4507;40.232;29.132;2022-12-29T13:40:39;102.20;;;70.83;;
8944;SDS011;4507;40.232;29.132;2022-12-29T13:43:13;104.83;;;75.63;;
8944;SDS011;4507;40.232;29.132;2022-12-29T13:45:43;101.13;;;73.23;;
8944;SDS011;4507;40.232;29.132;2022-12-29T13:48:14;102.97;;;74.87;;
8944;SDS011;4507;40.232;29.132;2022-12-29T13:50:50;109.77;;;81.13;;
8944;SDS011;4507;40.232;29.132;2022-12-29T13:53:24;115.30;;;81.10;;
8944;SDS011;4507;40.232;29.132;2022-12-29T13:56:03;109.87;;;78.70;;
8944;SDS011;4507;40.232;29.132;2022-12-29T13:58:41;105.77;;;75.27;;
8944;SDS011;4507;40.232;29.132;2022-12-29T14:01:18;109.63;;;77.50;;
8944;SDS011;4507;40.232;29.132;2022-12-29T14:03:51;113.70;;;79.67;;
8944;SDS011;4507;40.232;29.132;2022-12-29T14:06:24;120.43;;;79.77;;
8944;SDS011;4507;40.232;29.132;2022-12-29T14:08:55;117.07;;;79.30;;
8944;SDS011;4507;40.232;29.132;2022-12-29T14:11:29;106.97;;;77.33;;
8944;SDS011;4507;40.232;29.132;2022-12-29T14:14:10;122.07;;;78.67;;
8944;SDS011;4507;40.232;29.132;2022-12-29T14:16:42;117.40;;;84.67;;
8944;SDS011;4507;40.232;29.132;2022-12-29T14:19:13;120.67;;;81.17;;
8944;SDS011;4507;40.232;29.132;2022-12-29T14:21:53;123.23;;;88.03;;
8944;SDS011;4507;40.232;29.132;2022-12-29T14:33:16;154.80;;;102.13;;
8944;SDS011;4507;40.232;29.132;2022-12-29T14:35:46;163.07;;;107.63;;
8944;SDS011;4507;40.232;29.132;2022-12-29T14:38:24;199.33;;;124.03;;
8944;SDS011;4507;40.232;29.132;2022-12-29T14:43:57;252.53;;;136.40;;
8944;SDS011;4507;40.232;29.132;2022-12-29T14:46:45;231.03;;;129.70;;
8944;SDS011;4507;40.232;29.132;2022-12-29T14:49:18;181.03;;;114.07;;
8944;SDS011;4507;40.232;29.132;2022-12-29T14:51:50;170.67;;;112.97;;
8944;SDS011;4507;40.232;29.132;2022-12-29T14:54:40;167.47;;;112.50;;
8944;SDS011;4507;40.232;29.132;2022-12-29T14:57:26;176.10;;;116.20;;
8944;SDS011;4507;40.232;29.132;2022-12-29T15:00:00;177.50;;;123.60;;
8944;SDS011;4507;40.232;29.132;2022-12-29T15:02:36;187.70;;;125.07;;
8944;SDS011;4507;40.232;29.132;2022-12-29T15:05:26;175.50;;;121.50;;
8944;SDS011;4507;40.232;29.132;2022-12-29T15:07:59;177.27;;;124.47;;
8944;SDS011;4507;40.232;29.132;2022-12-29T15:10:34;196.63;;;130.40;;
8944;SDS011;4507;40.232;29.132;2022-12-29T15:13:14;198.17;;;129.53;;
8944;SDS011;4507;40.232;29.132;2022-12-29T15:15:46;204.27;;;135.00;;
8944;SDS011;4507;40.232;29.132;2022-12-29T15:18:26;205.13;;;143.23;;
8944;SDS011;4507;40.232;29.132;2022-12-29T15:20:57;210.47;;;147.43;;
8944;SDS011;4507;40.232;29.132;2022-12-29T15:23:29;273.87;;;154.93;;
8944;SDS011;4507;40.232;29.132;2022-12-29T15:26:04;271.50;;;151.13;;
8944;SDS011;4507;40.232;29.132;2022-12-29T15:28:37;264.23;;;139.67;;
8944;SDS011;4507;40.232;29.132;2022-12-29T15:31:10;234.53;;;134.00;;
8944;SDS011;4507;40.232;29.132;2022-12-29T15:33:42;222.40;;;117.33;;
8944;SDS011;4507;40.232;29.132;2022-12-29T15:36:16;193.37;;;113.23;;
8944;SDS011;4507;40.232;29.132;2022-12-29T15:38:47;190.80;;;109.90;;
8944;SDS011;4507;40.232;29.132;2022-12-29T15:41:24;219.20;;;110.73;;